createdAt,value
2023-05-06T00:00:19.993Z,3.30
2023-05-06T00:04:23.646Z,3.47
2023-05-06T00:08:27.661Z,3.10
2023-05-06T00:12:30.631Z,3.08
2023-05-06T00:16:33.284Z,3.53
2023-05-06T00:20:36.334Z,3.05
2023-05-06T00:24:40.361Z,2.88
2023-05-06T00:28:42.953Z,2.88
2023-05-06T00:32:45.641Z,2.92
2023-05-06T00:36:48.313Z,3.25
2023-05-06T00:40:52.294Z,4.32
2023-05-06T00:44:54.902Z,2.75
2023-05-06T00:48:57.570Z,3.17
2023-05-06T00:53:01.403Z,3.22
2023-05-06T00:57:05.680Z,3.08
2023-05-06T01:01:08.445Z,3.20
2023-05-06T01:05:12.297Z,3.17
2023-05-06T01:09:21.767Z,3.63
2023-05-06T01:13:35.497Z,3.70
2023-05-06T01:17:43.743Z,3.47
2023-05-06T01:21:48.878Z,3.30
2023-05-06T01:25:52.879Z,3.67
2023-05-06T01:29:55.947Z,2.78
2023-05-06T01:34:08.898Z,3.53
2023-05-06T01:38:18.527Z,3.35
2023-05-06T01:42:25.413Z,2.97
2023-05-06T01:46:30.448Z,3.53
2023-05-06T01:50:33.827Z,3.28
2023-05-06T01:54:36.479Z,2.63
2023-05-06T01:58:40.597Z,2.90
2023-05-06T02:02:43.376Z,2.67
2023-05-06T02:06:46.201Z,3.33
2023-05-06T02:10:48.898Z,3.50
2023-05-06T02:14:52.895Z,2.75
2023-05-06T02:18:55.836Z,3.35
2023-05-06T02:22:58.469Z,3.53
2023-05-06T02:27:02.263Z,3.35
2023-05-06T02:31:06.352Z,3.30
2023-05-06T02:35:10.238Z,3.05
2023-05-06T02:39:13.034Z,3.05
2023-05-06T02:43:15.643Z,3.17
2023-05-06T02:47:19.640Z,3.50
2023-05-06T02:51:22.255Z,3.30
2023-05-06T02:55:24.883Z,3.05
2023-05-06T02:59:27.496Z,3.22
2023-05-06T03:03:31.459Z,3.53
2023-05-06T03:07:34.234Z,3.33
2023-05-06T03:11:36.854Z,3.45
2023-05-06T03:15:39.479Z,4.03
2023-05-06T03:19:43.488Z,4.40
2023-05-06T03:23:46.108Z,3.20
2023-05-06T03:27:48.724Z,3.58
2023-05-06T03:31:51.753Z,3.45
2023-05-06T03:35:55.735Z,3.58
2023-05-06T03:39:58.345Z,3.47
2023-05-06T03:44:01.604Z,3.85
2023-05-06T03:48:04.563Z,4.18
2023-05-06T03:52:08.596Z,4.35
2023-05-06T03:56:11.236Z,4.72
2023-05-06T04:00:14.565Z,4.30
2023-05-06T04:04:17.177Z,4.00
2023-05-06T04:08:21.120Z,4.10
2023-05-06T04:12:23.751Z,4.25
2023-05-06T04:16:26.566Z,4.00
2023-05-06T04:20:29.413Z,3.90
2023-05-06T04:24:33.837Z,4.30
2023-05-06T04:28:36.737Z,3.15
2023-05-06T04:32:40.518Z,3.33
2023-05-06T04:36:43.406Z,3.72
2023-05-06T04:40:47.379Z,3.60
2023-05-06T04:44:50.122Z,3.10
2023-05-06T04:48:52.753Z,3.25
2023-05-06T04:52:55.365Z,3.50
2023-05-06T04:57:02.238Z,3.85
2023-05-06T05:01:08.891Z,2.88
2023-05-06T05:05:12.173Z,3.10
2023-05-06T05:09:15.134Z,3.45
2023-05-06T05:13:19.162Z,2.85
2023-05-06T05:17:21.909Z,2.92
2023-05-06T05:21:24.568Z,2.90
2023-05-06T05:25:31.748Z,3.08
2023-05-06T05:29:35.800Z,2.50
2023-05-06T05:33:38.471Z,2.80
2023-05-06T05:37:41.135Z,2.78
2023-05-06T05:41:43.776Z,3.42
2023-05-06T05:45:47.712Z,3.22
2023-05-06T05:49:50.312Z,3.13
2023-05-06T05:53:53.343Z,2.70
2023-05-06T05:57:55.997Z,2.97
2023-05-06T06:02:00.172Z,2.75
2023-05-06T06:06:02.840Z,2.67
2023-05-06T06:10:06.484Z,2.72
2023-05-06T06:14:09.181Z,2.95
2023-05-06T06:18:13.752Z,3.05
2023-05-06T06:22:16.433Z,3.15
2023-05-06T06:26:20.887Z,3.05
2023-05-06T06:30:24.523Z,2.90
2023-05-06T06:34:28.496Z,3.22
2023-05-06T06:38:31.622Z,3.08
2023-05-06T06:42:34.333Z,2.90
2023-05-06T06:46:36.966Z,3.25
2023-05-06T06:50:41.003Z,3.33
2023-05-06T06:54:43.627Z,3.30
2023-05-06T06:58:46.392Z,3.22
2023-05-06T07:02:49.438Z,3.50
2023-05-06T07:06:53.408Z,4.00
2023-05-06T07:10:56.592Z,3.30
2023-05-06T07:14:59.277Z,3.72
2023-05-06T07:19:02.153Z,3.63
2023-05-06T07:23:06.422Z,3.25
2023-05-06T07:27:09.125Z,3.08
2023-05-06T07:31:11.776Z,2.80
2023-05-06T07:35:14.430Z,3.05
2023-05-06T07:39:18.456Z,3.28
2023-05-06T07:43:23.069Z,3.15
2023-05-06T07:47:31.440Z,2.72
2023-05-06T07:51:34.238Z,3.13
2023-05-06T07:55:38.611Z,2.90
2023-05-06T07:59:41.306Z,3.13
2023-05-06T08:03:45.171Z,3.08
2023-05-06T08:07:47.899Z,2.63
2023-05-06T08:11:52.077Z,3.42
2023-05-06T08:15:55.141Z,2.60
2023-05-06T08:19:57.800Z,2.25
2023-05-06T08:24:00.421Z,2.67
2023-05-06T08:28:04.617Z,2.63
2023-05-06T08:32:07.488Z,2.67
2023-05-06T08:36:10.283Z,2.85
2023-05-06T08:40:19.747Z,2.88
2023-05-06T08:44:25.802Z,2.80
2023-05-06T08:48:29.934Z,2.70
2023-05-06T08:52:33.302Z,2.35
2023-05-06T08:56:37.588Z,2.00
2023-05-06T09:00:41.599Z,1.92
2023-05-06T09:04:45.303Z,1.70
2023-05-06T09:08:48.366Z,1.45
2023-05-06T09:12:51.346Z,2.10
2023-05-06T09:16:55.348Z,1.98
2023-05-06T09:21:00.153Z,1.83
2023-05-06T09:25:07.439Z,1.55
2023-05-06T09:29:11.910Z,2.03
2023-05-06T09:33:19.051Z,1.95
2023-05-06T09:37:31.268Z,2.30
2023-05-06T09:41:35.965Z,1.92
2023-05-06T09:45:38.634Z,1.80
2023-05-06T09:49:43.299Z,1.58
2023-05-06T09:53:46.754Z,1.45
2023-05-06T09:57:50.316Z,1.42
2023-05-06T10:01:53.214Z,1.40
2023-05-06T10:06:00.213Z,1.98
2023-05-06T10:10:04.660Z,1.77
2023-05-06T10:14:07.947Z,1.50
2023-05-06T10:18:11.799Z,2.40
2023-05-06T10:22:28.935Z,1.38
2023-05-06T10:26:31.962Z,1.65
2023-05-06T10:30:35.781Z,1.40
2023-05-06T10:34:48.380Z,1.45
2023-05-06T10:38:56.473Z,1.88
2023-05-06T10:43:24.577Z,1.67
2023-05-06T10:47:27.688Z,1.40
2023-05-06T10:51:30.391Z,1.42
2023-05-06T10:55:36.603Z,1.13
2023-05-06T10:59:46.627Z,1.20
2023-05-06T11:03:51.772Z,1.35
2023-05-06T11:08:08.624Z,1.42
2023-05-06T11:12:12.625Z,0.95
2023-05-06T11:16:47.824Z,0.88
2023-05-06T11:20:50.856Z,1.05
2023-05-06T11:24:54.810Z,0.80
2023-05-06T11:29:02.175Z,1.30
2023-05-06T11:33:06.049Z,0.98
2023-05-06T11:37:11.764Z,0.90
2023-05-06T11:41:14.536Z,0.90
2023-05-06T11:45:19.835Z,0.90
2023-05-06T11:53:25.795Z,0.73
2023-05-06T11:57:28.526Z,1.02
2023-05-06T12:01:32.492Z,0.63
2023-05-06T12:05:35.163Z,0.50
2023-05-06T12:09:38.808Z,0.93
2023-05-06T12:13:41.641Z,0.90
2023-05-06T12:17:45.887Z,0.82
2023-05-06T12:21:48.673Z,0.85
2023-05-06T12:26:03.905Z,0.60
2023-05-06T12:30:09.480Z,0.70
2023-05-06T12:34:14.191Z,0.90
2023-05-06T12:38:18.020Z,0.60
2023-05-06T12:42:21.440Z,0.63
2023-05-06T12:46:24.146Z,0.65
2023-05-06T12:50:37.148Z,0.70
2023-05-06T12:54:40.275Z,0.70
2023-05-06T12:58:43.013Z,0.73
2023-05-06T13:02:45.933Z,0.50
2023-05-06T13:06:51.178Z,0.50
2023-05-06T13:14:56.289Z,0.65
2023-05-06T13:18:59.021Z,0.40
2023-05-06T13:23:03.316Z,0.77
2023-05-06T13:27:06.058Z,0.60
2023-05-06T13:31:09.072Z,0.60
2023-05-06T13:35:12.000Z,0.50
2023-05-06T13:39:18.602Z,0.60
2023-05-06T13:43:21.684Z,0.63
2023-05-06T13:47:25.154Z,0.70
2023-05-06T13:51:30.786Z,0.50
2023-05-06T13:55:34.898Z,0.50
2023-05-06T13:59:37.529Z,0.70
2023-05-06T14:03:40.634Z,0.60
2023-05-06T14:07:43.278Z,0.60
2023-05-06T14:11:47.321Z,0.68
2023-05-06T14:15:50.151Z,0.70
2023-05-06T14:19:52.784Z,0.70
2023-05-06T14:23:55.408Z,0.52
2023-05-06T14:27:59.363Z,0.57
2023-05-06T14:32:02.052Z,0.77
2023-05-06T14:36:05.153Z,0.60
2023-05-06T14:40:10.043Z,0.70
2023-05-06T14:44:14.034Z,0.60
2023-05-06T14:48:16.658Z,0.77
2023-05-06T14:52:19.468Z,0.60
2023-05-06T14:56:22.183Z,0.70
2023-05-06T15:00:26.510Z,1.00
2023-05-06T15:04:29.132Z,0.60
2023-05-06T15:08:31.799Z,0.50
2023-05-06T15:12:34.681Z,0.70
2023-05-06T15:16:38.724Z,0.57
2023-05-06T15:20:41.412Z,0.55
2023-05-06T15:24:44.226Z,0.70
2023-05-06T15:28:46.870Z,0.80
2023-05-06T15:32:50.874Z,0.52
2023-05-06T15:36:54.882Z,0.60
2023-05-06T15:40:57.540Z,0.60
2023-05-06T15:45:00.348Z,0.70
2023-05-06T15:49:29.553Z,0.63
2023-05-06T15:53:28.852Z,0.60
2023-05-06T15:57:31.482Z,0.70
2023-05-06T16:02:04.720Z,0.55
2023-05-06T16:06:00.516Z,0.63
2023-05-06T16:10:03.462Z,0.70
2023-05-06T16:14:06.151Z,0.60
2023-05-06T16:18:08.851Z,0.52
2023-05-06T16:22:12.837Z,0.68
2023-05-06T16:26:16.698Z,0.70
2023-05-06T16:30:19.453Z,0.60
2023-05-06T16:34:22.132Z,0.70
2023-05-06T16:38:26.297Z,0.93
2023-05-06T16:42:28.936Z,0.77
2023-05-06T16:46:33.173Z,0.70
2023-05-06T16:50:35.883Z,0.70
2023-05-06T16:54:39.828Z,0.60
2023-05-06T16:58:42.882Z,0.75
2023-05-06T17:02:46.143Z,0.50
2023-05-06T17:06:48.799Z,1.70
2023-05-06T17:10:52.742Z,0.80
2023-05-06T17:14:55.604Z,0.70
2023-05-06T17:18:58.228Z,0.90
2023-05-06T17:23:00.850Z,0.60
2023-05-06T17:27:04.909Z,0.45
2023-05-06T17:31:07.574Z,0.52
2023-05-06T17:35:10.872Z,0.73
2023-05-06T17:39:13.634Z,0.60
2023-05-06T17:43:17.759Z,0.73
2023-05-06T17:47:22.839Z,0.73
2023-05-06T17:51:26.888Z,0.82
2023-05-06T17:55:29.518Z,9.73
2023-05-06T17:59:33.560Z,3.15
2023-05-06T18:03:36.473Z,1.13
2023-05-06T18:07:39.254Z,0.90
2023-05-06T18:11:42.551Z,0.90
2023-05-06T18:15:46.581Z,0.80
2023-05-06T18:19:49.267Z,0.73
2023-05-06T18:23:58.722Z,0.98
2023-05-06T18:28:08.553Z,0.60
2023-05-06T18:32:12.590Z,0.73
2023-05-06T18:36:15.363Z,1.00
2023-05-06T18:40:18.518Z,1.40
2023-05-06T18:44:21.214Z,0.80
2023-05-06T18:48:26.117Z,0.70
2023-05-06T18:52:28.777Z,0.73
2023-05-06T18:56:31.779Z,0.90
2023-05-06T19:00:34.607Z,1.00
2023-05-06T19:04:38.626Z,1.05
2023-05-06T19:08:41.777Z,0.90
2023-05-06T19:12:45.547Z,1.23
2023-05-06T19:16:49.284Z,1.17
2023-05-06T19:20:53.580Z,1.30
2023-05-06T19:24:57.865Z,1.30
2023-05-06T19:29:00.555Z,1.83
2023-05-06T19:33:04.093Z,2.08
2023-05-06T19:37:09.150Z,2.10
2023-05-06T19:41:11.800Z,1.67
2023-05-06T19:45:16.786Z,2.20
2023-05-06T19:49:21.462Z,2.50
2023-05-06T19:53:25.630Z,2.88
2023-05-06T19:57:28.308Z,2.30
2023-05-06T20:01:30.976Z,2.17
2023-05-06T20:05:33.591Z,2.08
2023-05-06T20:09:37.709Z,1.83
2023-05-06T20:13:40.276Z,2.30
2023-05-06T20:17:42.904Z,2.35
2023-05-06T20:21:45.581Z,2.20
2023-05-06T20:25:51.508Z,2.58
2023-05-06T20:29:54.161Z,1.88
2023-05-06T20:33:56.820Z,2.00
2023-05-06T20:37:59.755Z,1.52
2023-05-06T20:42:03.772Z,1.80
2023-05-06T20:46:06.816Z,2.03
2023-05-06T20:50:16.237Z,1.83
2023-05-06T20:54:18.989Z,1.83
2023-05-06T20:58:23.009Z,1.95
2023-05-06T21:02:29.164Z,2.15
2023-05-06T21:06:32.176Z,2.00
2023-05-06T21:10:34.880Z,1.75
2023-05-06T21:14:38.974Z,1.80
2023-05-06T21:18:41.895Z,1.95
2023-05-06T21:22:44.537Z,1.83
2023-05-06T21:26:47.175Z,1.60
2023-05-06T21:30:51.154Z,2.17
2023-05-06T21:34:53.834Z,1.63
2023-05-06T21:39:03.346Z,2.00
2023-05-06T21:43:06.009Z,2.05
2023-05-06T21:47:10.185Z,2.40
2023-05-06T21:51:14.894Z,2.40
2023-05-06T21:55:17.878Z,1.75
2023-05-06T21:59:20.719Z,1.98
2023-05-06T22:03:24.965Z,2.08
2023-05-06T22:07:27.599Z,1.95
2023-05-06T22:11:30.209Z,1.90
2023-05-06T22:15:33.216Z,2.08
2023-05-06T22:19:38.406Z,1.90
2023-05-06T22:23:41.536Z,2.13
2023-05-06T22:27:44.163Z,2.08
2023-05-06T22:31:47.000Z,1.83
2023-05-06T22:35:51.082Z,1.80
2023-05-06T22:39:56.666Z,1.95
2023-05-06T22:44:00.819Z,1.80
2023-05-06T22:48:03.492Z,1.85
2023-05-06T22:52:07.581Z,1.88
2023-05-06T22:56:10.467Z,1.58
2023-05-06T23:00:13.843Z,1.88
2023-05-06T23:04:16.678Z,2.00
2023-05-06T23:08:20.949Z,1.98
2023-05-06T23:12:23.562Z,1.73
2023-05-06T23:16:26.338Z,1.73
2023-05-06T23:20:29.003Z,2.00
2023-05-06T23:24:32.941Z,2.03
2023-05-06T23:28:35.657Z,2.15
2023-05-06T23:32:38.805Z,1.85
2023-05-06T23:36:41.508Z,1.73
2023-05-06T23:40:45.824Z,2.20
2023-05-06T23:44:48.791Z,1.92
2023-05-06T23:48:51.461Z,1.75
2023-05-06T23:52:54.040Z,2.03
2023-05-06T23:56:57.996Z,1.70
